Time;durP1;ratioP1;P1;durP2;ratioP2;P2;SDS_P1;SDS_P2;PMS_P1;PMS_P2;Temp;Humidity;BMP_temperature;BMP_pressure;BME280_temperature;BME280_humidity;BME280_pressure;Samples;Min_cycle;Max_cycle;Signal;HPM_P1;HPM_P2
2023/02/05 00:02:24;;;;;;;11.93;4.83;;;;;;;2.22;53.34;102242.88;5002417;27;96915;-88
2023/02/05 00:04:50;;;;;;;10.20;4.30;;;;;;;2.22;53.49;102242.00;5003129;27;96943;-86
2023/02/05 00:07:15;;;;;;;10.67;4.23;;;;;;;2.17;53.44;102230.59;5000742;28;101689;-86
2023/02/05 00:09:41;;;;;;;10.63;4.63;;;;;;;2.18;53.44;102228.06;5032787;27;98326;-86
2023/02/05 00:12:06;;;;;;;10.67;4.97;;;;;;;2.20;53.28;102236.75;5014097;27;99744;-86
2023/02/05 00:14:32;;;;;;;9.50;4.27;;;;;;;2.20;53.35;102236.75;4998411;27;96873;-88
2023/02/05 00:16:58;;;;;;;11.07;4.80;;;;;;;2.15;53.63;102225.38;4999459;27;100593;-87
2023/02/05 00:19:23;;;;;;;14.03;4.80;;;;;;;2.19;53.50;102232.41;5010449;27;98080;-88
2023/02/05 00:21:49;;;;;;;13.73;5.33;;;;;;;2.19;53.79;102235.00;5007222;27;96769;-86
2023/02/05 00:24:14;;;;;;;11.83;4.47;;;;;;;2.18;53.34;102237.53;5012321;27;96848;-85
2023/02/05 00:26:40;;;;;;;8.03;4.23;;;;;;;2.01;53.53;102211.13;5033060;27;100258;-86
2023/02/05 00:29:06;;;;;;;11.80;4.67;;;;;;;2.17;53.61;102233.19;5036021;27;100598;-86
2023/02/05 00:31:31;;;;;;;9.93;4.33;;;;;;;2.15;53.50;102238.34;5057214;27;96687;-86
2023/02/05 00:33:57;;;;;;;9.83;4.43;;;;;;;2.13;53.36;102236.53;5034133;27;96837;-86
2023/02/05 00:36:24;;;;;;;10.20;3.90;;;;;;;2.06;53.82;102230.25;5058852;27;97816;-85
2023/02/05 00:38:50;;;;;;;8.73;4.20;;;;;;;1.82;53.91;102186.34;5041841;27;101448;-89
2023/02/05 00:41:18;;;;;;;8.60;4.10;;;;;;;2.13;53.60;102241.72;5039112;27;97297;-85
2023/02/05 00:43:43;;;;;;;10.23;3.93;;;;;;;2.11;53.86;102233.88;5036895;27;96859;-86
2023/02/05 00:46:10;;;;;;;9.57;4.27;;;;;;;1.91;53.56;102207.34;5038319;27;100882;-86
2023/02/05 00:48:36;;;;;;;9.33;4.00;;;;;;;1.90;53.72;102208.19;5039397;27;100294;-87
2023/02/05 00:51:02;;;;;;;10.20;3.53;;;;;;;1.93;54.20;102216.03;5036596;27;97552;-86
2023/02/05 00:53:28;;;;;;;12.20;3.90;;;;;;;1.89;54.17;102219.38;5036720;27;97000;-87
2023/02/05 00:55:53;;;;;;;8.57;3.60;;;;;;;1.71;53.66;102193.75;5052852;27;97993;-86
2023/02/05 00:58:19;;;;;;;8.53;4.27;;;;;;;1.97;53.77;102235.16;5038285;27;101300;-87
2023/02/05 01:00:45;;;;;;;9.97;3.83;;;;;;;1.95;53.77;102245.47;5025780;27;97715;-87
2023/02/05 01:03:11;;;;;;;6.23;3.43;;;;;;;1.74;54.22;102222.34;5035605;27;96853;-85
2023/02/05 01:05:38;;;;;;;12.83;4.13;;;;;;;1.85;54.18;102239.94;5035312;27;97987;-88
2023/02/05 01:08:05;;;;;;;8.47;3.57;;;;;;;1.70;54.19;102223.06;5028059;27;100198;-88
2023/02/05 01:10:31;;;;;;;8.67;3.80;;;;;;;1.91;54.27;102253.09;5035959;27;97198;-85
2023/02/05 01:12:57;;;;;;;11.17;3.73;;;;;;;1.65;54.41;102224.63;5047532;27;97364;-88
2023/02/05 01:15:23;;;;;;;9.07;3.40;;;;;;;1.88;54.68;102256.47;5031488;27;101460;-89
2023/02/05 01:17:49;;;;;;;10.23;4.27;;;;;;;1.91;54.54;102255.69;5039079;27;100958;-89
2023/02/05 01:20:14;;;;;;;9.37;4.27;;;;;;;1.87;54.47;102251.25;5039461;27;96839;-86
2023/02/05 01:22:40;;;;;;;9.50;4.20;;;;;;;1.90;54.91;102254.81;5053140;27;96945;-86
2023/02/05 01:25:07;;;;;;;9.17;4.17;;;;;;;1.88;54.92;102253.00;5017642;27;101812;-87
2023/02/05 01:27:33;;;;;;;8.07;3.87;;;;;;;1.70;54.59;102228.25;5036428;27;101154;-86
2023/02/05 01:29:59;;;;;;;11.03;4.20;;;;;;;1.75;54.76;102223.25;5038071;27;97163;-86
2023/02/05 01:32:26;;;;;;;9.40;3.90;;;;;;;1.74;54.63;102229.22;5035123;27;96866;-86
2023/02/05 01:34:51;;;;;;;8.97;3.60;;;;;;;1.93;54.93;102260.09;5038913;27;100226;-87
2023/02/05 01:37:17;;;;;;;8.40;4.10;;;;;;;1.82;55.13;102240.72;5038942;27;101734;-86
2023/02/05 01:39:43;;;;;;;7.60;3.67;;;;;;;1.91;54.98;102248.78;5035426;27;96720;-86
2023/02/05 01:42:19;;;;;;;10.63;4.07;;;;;;;1.92;55.41;102254.84;5035826;27;96749;-87
2023/02/05 01:45:22;;;;;;;10.33;3.47;;;;;;;1.92;55.01;102245.38;5037749;27;101543;-88
2023/02/05 01:47:50;;;;;;;11.37;5.00;;;;;;;1.80;55.18;102235.50;5071981;27;97922;-88
2023/02/05 01:50:20;;;;;;;6.77;3.83;;;;;;;1.83;55.35;102247.66;5038070;27;96765;-87
2023/02/05 01:52:45;;;;;;;8.93;4.30;;;;;;;1.81;55.71;102245.03;5038245;27;96967;-87
2023/02/05 01:55:11;;;;;;;8.87;3.90;;;;;;;1.79;55.62;102238.03;5034492;27;101599;-88
2023/02/05 01:57:37;;;;;;;8.07;3.77;;;;;;;1.83;55.59;102255.41;5048109;27;101165;-87
2023/02/05 02:00:04;;;;;;;7.07;3.30;;;;;;;1.83;55.38;102249.38;5035048;27;97676;-87
2023/02/05 02:02:40;;;;;;;10.60;3.43;;;;;;;1.68;55.83;102224.72;5042877;27;97406;-86
2023/02/05 02:05:09;;;;;;;8.93;4.23;;;;;;;1.56;55.75;102207.09;5051959;27;101719;-86
2023/02/05 02:07:35;;;;;;;7.43;3.37;;;;;;;1.83;55.89;102254.53;5051752;27;101481;-86
2023/02/05 02:10:01;;;;;;;7.90;3.60;;;;;;;1.80;55.72;102252.72;5052008;27;96795;-86
2023/02/05 02:12:29;;;;;;;10.37;3.67;;;;;;;1.67;55.47;102243.69;5037213;27;99760;-86
2023/02/05 02:14:59;;;;;;;7.73;3.63;;;;;;;1.78;55.34;102255.28;5051304;27;101822;-89
2023/02/05 02:17:25;;;;;;;9.57;3.13;;;;;;;1.79;56.05;102250.97;5031575;27;100051;-88
2023/02/05 02:19:57;;;;;;;8.73;3.17;;;;;;;1.64;55.85;102227.19;5024954;27;96791;-87
2023/02/05 02:22:32;;;;;;;8.93;3.20;;;;;;;1.76;56.05;102249.16;5052052;27;96776;-87
2023/02/05 02:25:33;;;;;;;9.23;3.73;;;;;;;1.76;55.58;102258.66;5050476;27;100292;-88
2023/02/05 02:28:10;;;;;;;8.77;3.33;;;;;;;1.75;55.63;102256.91;4956569;28;101368;-86
2023/02/05 02:30:53;;;;;;;6.27;3.30;;;;;;;1.73;56.16;102258.56;4969860;28;96999;-87
2023/02/05 02:33:18;;;;;;;8.33;3.83;;;;;;;1.72;55.94;102254.22;4956816;28;96877;-86
2023/02/05 02:35:53;;;;;;;7.70;3.37;;;;;;;1.73;56.15;102249.06;4957530;28;100947;-85
2023/02/05 02:38:43;;;;;;;9.10;3.40;;;;;;;1.70;55.70;102258.47;4973685;28;101523;-86
2023/02/05 02:41:20;;;;;;;8.63;4.07;;;;;;;1.62;55.99;102240.06;4940866;28;97247;-87
2023/02/05 02:43:52;;;;;;;6.90;3.63;;;;;;;1.58;55.97;102230.44;4957645;28;97127;-86
2023/02/05 02:46:22;;;;;;;10.52;3.60;;;;;;;1.67;56.17;102248.00;4965564;28;100310;-89
2023/02/05 02:48:49;;;;;;;7.93;3.57;;;;;;;1.59;56.58;102238.25;4957764;28;101993;-87
2023/02/05 02:51:15;;;;;;;9.13;3.03;;;;;;;1.57;56.11;102239.94;4962068;28;96943;-86
2023/02/05 02:53:44;;;;;;;8.17;3.50;;;;;;;1.62;56.59;102250.41;4957334;28;96857;-86
2023/02/05 02:56:11;;;;;;;8.63;3.40;;;;;;;1.60;56.59;102246.94;4956103;28;101748;-88
2023/02/05 02:58:42;;;;;;;7.80;3.40;;;;;;;1.61;56.21;102248.69;4957433;28;101617;-85
2023/02/05 03:01:09;;;;;;;7.73;3.77;;;;;;;1.53;56.41;102244.94;4946048;28;97368;-86
2023/02/05 03:03:39;;;;;;;9.13;3.97;;;;;;;1.57;56.42;102251.97;4958074;28;97151;-87
2023/02/05 03:06:06;;;;;;;9.53;3.40;;;;;;;1.39;56.52;102220.31;5044167;27;100145;-87
2023/02/05 03:08:56;;;;;;;7.70;3.50;;;;;;;1.53;56.41;102247.53;5054881;27;101685;-88
2023/02/05 03:11:25;;;;;;;8.83;3.60;;;;;;;1.50;56.95;102243.13;5040456;27;97650;-88
2023/02/05 03:13:51;;;;;;;9.30;4.03;;;;;;;1.47;56.73;102243.03;5055318;27;96851;-87
2023/02/05 03:16:20;;;;;;;8.93;4.60;;;;;;;1.45;56.75;102248.97;5050647;27;99591;-87
2023/02/05 03:18:47;;;;;;;10.87;4.57;;;;;;;1.46;56.81;102250.75;5050978;27;101331;-87
2023/02/05 03:21:23;;;;;;;9.00;4.60;;;;;;;1.40;56.88;102245.34;5036843;27;97080;-87
2023/02/05 03:23:49;;;;;;;6.27;3.50;;;;;;;1.38;56.94;102250.47;5045145;27;96926;-88
2023/02/05 03:26:29;;;;;;;8.60;4.30;;;;;;;1.29;56.86;102238.09;4999614;27;99956;-87
2023/02/05 03:29:12;;;;;;;13.00;4.50;;;;;;;1.25;56.97;102249.19;4987637;28;101618;-88
2023/02/05 03:32:10;;;;;;;10.07;4.27;;;;;;;1.38;57.53;102266.00;5010225;27;96785;-88
2023/02/05 03:34:48;;;;;;;11.90;4.53;;;;;;;1.36;56.87;102255.59;5014951;27;96959;-86
2023/02/05 03:37:30;;;;;;;13.20;5.13;;;;;;;1.33;56.69;102258.06;5017076;27;100049;-85
2023/02/05 03:40:08;;;;;;;10.13;4.37;;;;;;;1.34;56.79;102256.41;5018106;27;100853;-88
2023/02/05 03:42:53;;;;;;;9.77;3.97;;;;;;;1.27;57.07;102251.81;5005814;27;97394;-86
2023/02/05 03:45:24;;;;;;;8.27;4.13;;;;;;;1.32;57.26;102261.50;5015090;27;96806;-87
2023/02/05 03:48:10;;;;;;;10.90;4.53;;;;;;;1.32;57.04;102260.63;5003298;27;101409;-87
2023/02/05 03:50:40;;;;;;;7.77;3.50;;;;;;;1.32;57.19;102258.91;5020211;27;101882;-87
2023/02/05 03:53:18;;;;;;;8.27;3.90;;;;;;;1.33;57.08;102264.97;5011618;28;96892;-86
2023/02/05 03:55:52;;;;;;;9.83;4.13;;;;;;;1.30;57.33;102262.28;5002328;27;96721;-86
2023/02/05 03:58:41;;;;;;;8.27;4.50;;;;;;;1.06;57.27;102236.44;5003618;27;100109;-86
2023/02/05 04:01:09;;;;;;;7.17;3.63;;;;;;;1.27;57.15;102262.16;5016613;28;100315;-86
2023/02/05 04:03:36;;;;;;;7.07;3.47;;;;;;;1.17;57.22;102250.63;5004374;27;96723;-86
2023/02/05 04:06:02;;;;;;;9.93;4.33;;;;;;;1.24;57.47;102269.81;5003382;27;97023;-86
2023/02/05 04:08:28;;;;;;;7.67;3.40;;;;;;;1.15;57.37;102259.16;5018428;27;101867;-87
2023/02/05 04:10:53;;;;;;;9.10;4.13;;;;;;;1.21;57.40;102261.94;5003665;27;100018;-89
2023/02/05 04:13:20;;;;;;;6.23;3.20;;;;;;;1.17;57.22;102262.69;5016141;28;97079;-86
2023/02/05 04:15:48;;;;;;;8.43;3.80;;;;;;;0.94;57.66;102223.06;5013045;27;97003;-88
2023/02/05 04:18:15;;;;;;;6.73;3.63;;;;;;;1.11;57.96;102253.88;5016575;28;101050;-86
2023/02/05 04:20:43;;;;;;;7.43;4.00;;;;;;;1.13;57.65;102259.09;4995502;27;100408;-87
2023/02/05 04:23:08;;;;;;;8.60;4.10;;;;;;;1.02;57.60;102256.13;5003515;27;96667;-87
2023/02/05 04:25:38;;;;;;;7.20;3.93;;;;;;;1.02;57.63;102252.66;5052008;27;96900;-87
2023/02/05 04:28:08;;;;;;;8.13;4.00;;;;;;;1.08;57.87;102269.28;5055914;27;99668;-86
2023/02/05 04:30:34;;;;;;;11.13;4.30;;;;;;;1.09;57.47;102270.16;5040609;27;100139;-86
2023/02/05 04:33:01;;;;;;;9.57;4.27;;;;;;;1.07;57.45;102277.84;5057342;27;96792;-86
2023/02/05 04:35:28;;;;;;;9.97;3.73;;;;;;;1.07;57.83;102276.97;5037363;27;96978;-87
2023/02/05 04:37:54;;;;;;;7.03;3.43;;;;;;;0.85;58.06;102245.19;5029024;27;101159;-87
2023/02/05 04:40:19;;;;;;;8.07;3.60;;;;;;;1.07;57.79;102279.56;5041052;27;101033;-86
2023/02/05 04:42:45;;;;;;;8.00;3.57;;;;;;;1.06;57.60;102275.22;5056264;27;96867;-87
2023/02/05 04:45:11;;;;;;;7.63;3.80;;;;;;;1.01;57.58;102271.59;5037006;27;97072;-86
2023/02/05 04:47:37;;;;;;;6.37;3.37;;;;;;;0.95;57.97;102261.91;5030757;27;101263;-86
2023/02/05 04:50:03;;;;;;;8.10;3.27;;;;;;;0.99;57.86;102271.56;5039863;27;101501;-87
2023/02/05 04:52:29;;;;;;;7.83;3.30;;;;;;;0.98;57.79;102271.47;5039540;27;97386;-86
2023/02/05 04:54:54;;;;;;;8.03;3.37;;;;;;;0.99;57.78;102286.16;5049602;27;97054;-87
2023/02/05 04:57:20;;;;;;;8.57;4.03;;;;;;;0.90;57.67;102281.53;5036149;27;101539;-88
2023/02/05 04:59:46;;;;;;;8.10;3.63;;;;;;;0.96;58.06;102289.53;5039030;27;100966;-88
2023/02/05 05:02:11;;;;;;;8.63;3.57;;;;;;;0.87;57.76;102287.50;5038224;27;97112;-86
2023/02/05 05:04:37;;;;;;;6.50;3.80;;;;;;;0.90;57.63;102292.78;5021062;27;97639;-87
2023/02/05 05:07:03;;;;;;;7.10;3.50;;;;;;;0.72;57.83;102271.41;5029536;27;101474;-86
2023/02/05 05:09:28;;;;;;;7.67;3.67;;;;;;;0.81;57.62;102288.94;5037682;27;101371;-87
2023/02/05 05:11:55;;;;;;;7.73;3.83;;;;;;;0.70;58.11;102272.16;5035731;27;97347;-86
2023/02/05 05:14:21;;;;;;;8.83;4.40;;;;;;;0.84;58.15;102313.25;5034684;27;96932;-88
2023/02/05 05:16:48;;;;;;;10.43;4.47;;;;;;;0.69;57.88;102289.38;5056019;27;101574;-88
2023/02/05 05:19:13;;;;;;;9.93;4.87;;;;;;;0.88;58.35;102324.56;5039535;27;100911;-88
2023/02/05 05:21:39;;;;;;;10.00;4.60;;;;;;;0.87;58.18;102321.13;5025513;27;97401;-90
2023/02/05 05:24:05;;;;;;;9.83;4.80;;;;;;;0.84;57.94;102317.50;5039254;27;97126;-87
2023/02/05 05:26:30;;;;;;;10.77;4.83;;;;;;;0.87;58.36;102328.88;5055699;27;97593;-86
2023/02/05 05:28:56;;;;;;;9.47;4.60;;;;;;;0.87;57.96;102333.13;5055974;27;100828;-87
2023/02/05 05:31:22;;;;;;;9.67;5.27;;;;;;;0.82;58.36;102332.09;5038032;27;96725;-87
2023/02/05 05:33:48;;;;;;;11.80;5.40;;;;;;;0.78;57.85;102336.25;5026179;27;96964;-86
2023/02/05 05:36:14;;;;;;;13.97;6.63;;;;;;;0.76;58.09;102340.50;5039051;27;101533;-86
2023/02/05 05:38:40;;;;;;;14.37;6.93;;;;;;;0.59;58.02;102324.34;5056340;27;98931;-86
2023/02/05 05:43:52;;;;;;;13.33;5.60;;;;;;;0.57;58.43;102333.72;5059379;27;96952;-86
2023/02/05 05:46:21;;;;;;;10.60;5.37;;;;;;;0.74;58.64;102361.97;5052381;27;101249;-86
2023/02/05 05:48:51;;;;;;;14.40;6.33;;;;;;;0.66;58.40;102367.69;5037064;27;99768;-86
2023/02/05 05:51:18;;;;;;;8.07;4.23;;;;;;;0.62;58.53;102363.25;5037947;27;96792;-87
2023/02/05 05:53:44;;;;;;;10.63;4.90;;;;;;;0.58;57.85;102353.63;5041404;27;96746;-87
2023/02/05 05:56:10;;;;;;;10.13;5.10;;;;;;;0.58;58.37;102357.88;5034639;27;100098;-87
2023/02/05 05:58:36;;;;;;;9.43;4.80;;;;;;;0.60;58.12;102364.88;5053121;27;99555;-88
2023/02/05 06:01:03;;;;;;;11.00;5.50;;;;;;;0.60;58.28;102356.25;5054975;27;97009;-86
2023/02/05 06:03:28;;;;;;;10.30;4.77;;;;;;;0.62;58.39;102372.69;5038241;27;97269;-87
2023/02/05 06:05:54;;;;;;;11.13;4.83;;;;;;;0.60;58.51;102366.56;5036014;27;101164;-87
2023/02/05 06:08:20;;;;;;;13.10;5.33;;;;;;;0.52;58.37;102353.34;5038224;27;99811;-87
2023/02/05 06:10:45;;;;;;;11.53;5.40;;;;;;;0.56;58.31;102360.41;5021948;27;96808;-86
2023/02/05 06:13:11;;;;;;;11.60;5.33;;;;;;;0.53;58.82;102362.00;5033906;27;96951;-86
2023/02/05 06:15:37;;;;;;;12.83;5.47;;;;;;;0.41;58.79;102352.06;5029044;27;101040;-86
2023/02/05 06:18:03;;;;;;;10.57;5.03;;;;;;;0.46;58.83;102366.03;5040050;27;99673;-87
2023/02/05 06:20:29;;;;;;;10.30;4.60;;;;;;;0.49;58.78;102379.06;5056516;27;97074;-86
2023/02/05 06:22:54;;;;;;;13.37;6.00;;;;;;;0.48;58.75;102381.59;5038722;27;96990;-87
2023/02/05 06:25:20;;;;;;;9.80;5.30;;;;;;;0.41;58.20;102380.50;5036525;27;100868;-89
2023/02/05 06:27:47;;;;;;;11.23;5.60;;;;;;;0.41;58.66;102380.50;5033881;27;97155;-88
2023/02/05 06:30:13;;;;;;;14.40;6.43;;;;;;;0.42;58.81;102383.13;5037415;27;96768;-87
2023/02/05 06:32:38;;;;;;;12.43;6.63;;;;;;;0.29;58.58;102367.97;5053722;27;96961;-87
2023/02/05 06:35:05;;;;;;;11.10;6.13;;;;;;;0.36;58.59;102388.03;5017122;27;101102;-86
2023/02/05 06:37:30;;;;;;;14.87;7.03;;;;;;;0.35;58.87;102391.47;5037340;27;101322;-86
2023/02/05 06:39:56;;;;;;;13.27;6.00;;;;;;;0.36;58.64;102398.38;5052831;27;96785;-87
2023/02/05 06:42:22;;;;;;;15.17;6.83;;;;;;;0.38;58.83;102390.69;5028673;27;97492;-86
2023/02/05 06:44:47;;;;;;;12.87;6.60;;;;;;;0.37;58.95;102400.13;5034198;27;101526;-86
2023/02/05 06:47:14;;;;;;;17.33;7.10;;;;;;;0.14;58.31;102357.84;5049681;27;99899;-91
2023/02/05 06:49:39;;;;;;;14.27;6.73;;;;;;;0.35;58.88;102396.63;5017324;27;97019;-87
2023/02/05 06:52:05;;;;;;;13.77;7.23;;;;;;;0.22;58.54;102371.97;5034910;27;96824;-87
2023/02/05 06:54:31;;;;;;;13.83;7.27;;;;;;;0.28;58.89;102391.13;5031652;27;101308;-86
2023/02/05 06:56:57;;;;;;;10.33;6.00;;;;;;;0.31;58.60;102397.31;5031281;27;101450;-86
2023/02/05 06:59:22;;;;;;;11.47;5.77;;;;;;;0.29;59.01;102406.72;5030189;27;96851;-87
2023/02/05 07:01:48;;;;;;;11.07;5.73;;;;;;;0.34;59.02;102418.09;5025668;27;96777;-87
2023/02/05 07:04:14;;;;;;;12.77;5.23;;;;;;;0.21;59.42;102398.63;5049555;27;100164;-87
2023/02/05 07:06:40;;;;;;;8.30;4.87;;;;;;;0.33;59.04;102431.84;5039286;27;98993;-87
2023/02/05 07:09:07;;;;;;;11.20;5.37;;;;;;;0.34;58.78;102432.72;5048493;27;96914;-86
2023/02/05 07:11:32;;;;;;;13.10;5.50;;;;;;;0.33;59.53;102428.38;5034149;27;97254;-86
2023/02/05 07:14:02;;;;;;;12.97;5.27;;;;;;;0.20;59.65;102412.38;5044416;27;98513;-87
2023/02/05 07:16:29;;;;;;;14.33;5.30;;;;;;;0.23;58.76;102419.34;5050267;27;101261;-87
2023/02/05 07:18:57;;;;;;;11.37;5.10;;;;;;;0.37;59.35;102440.59;5043718;27;97376;-87
2023/02/05 07:21:24;;;;;;;11.63;5.70;;;;;;;0.36;59.15;102441.44;5064936;27;97142;-88
2023/02/05 07:23:50;;;;;;;12.30;4.50;;;;;;;0.37;59.29;102438.88;5032084;27;101621;-87
2023/02/05 07:26:17;;;;;;;10.53;4.93;;;;;;;0.57;59.16;102460.38;5012107;27;101686;-88
2023/02/05 07:28:43;;;;;;;9.70;4.93;;;;;;;0.88;59.34;102457.34;4993432;27;96932;-86
2023/02/05 07:31:11;;;;;;;10.23;5.20;;;;;;;1.24;59.47;102462.16;5002374;27;96993;-88
2023/02/05 07:33:37;;;;;;;11.03;4.87;;;;;;;1.47;58.33;102442.34;4995211;27;98847;-87
2023/02/05 07:36:04;;;;;;;13.23;5.40;;;;;;;1.70;57.99;102439.72;5018886;27;101321;-87
2023/02/05 07:38:30;;;;;;;11.73;5.67;;;;;;;1.97;57.37;102447.56;4994466;27;96819;-87
2023/02/05 07:40:56;;;;;;;11.97;5.47;;;;;;;2.19;56.99;102452.66;5010346;27;97344;-87
2023/02/05 07:43:21;;;;;;;10.37;6.20;;;;;;;2.36;56.45;102450.66;5001951;27;100761;-87
2023/02/05 07:45:48;;;;;;;11.10;5.20;;;;;;;2.53;56.07;102451.22;5015595;28;101689;-87
2023/02/05 07:48:14;;;;;;;12.50;6.33;;;;;;;2.74;55.63;102451.03;4988714;27;96998;-87
2023/02/05 07:50:44;;;;;;;12.67;6.10;;;;;;;2.92;55.31;102451.59;5019153;27;96833;-87
2023/02/05 07:53:09;;;;;;;13.50;5.97;;;;;;;3.16;54.78;102455.78;4999374;27;101478;-87
2023/02/05 07:55:35;;;;;;;11.17;6.10;;;;;;;3.34;54.26;102452.84;5013738;27;98011;-88
2023/02/05 07:58:00;;;;;;;13.60;6.23;;;;;;;3.43;54.11;102434.94;4988771;28;96708;-87
2023/02/05 08:00:26;;;;;;;11.23;6.13;;;;;;;3.65;54.04;102461.53;5007824;28;97366;-87
2023/02/05 08:02:51;;;;;;;11.60;5.70;;;;;;;3.80;53.58;102448.97;5017591;27;101275;-87
2023/02/05 08:05:17;;;;;;;12.23;6.10;;;;;;;3.95;52.89;102445.91;5001972;27;100275;-88
2023/02/05 08:07:43;;;;;;;12.83;6.10;;;;;;;4.13;52.50;102448.13;5005167;27;96786;-87
2023/02/05 08:10:10;;;;;;;13.80;6.47;;;;;;;4.23;52.27;102452.72;4989062;28;97992;-87
2023/02/05 08:12:36;;;;;;;12.37;7.13;;;;;;;4.29;51.93;102448.56;5000537;27;101394;-86
2023/02/05 08:15:01;;;;;;;11.27;6.43;;;;;;;4.41;51.46;102447.13;4992924;27;100717;-81
2023/02/05 08:17:27;;;;;;;14.53;6.83;;;;;;;4.31;51.51;102407.88;5015046;27;98490;-83
2023/02/05 08:19:53;;;;;;;12.47;7.03;;;;;;;4.58;51.19;102443.22;5002993;27;97277;-83
2023/02/05 08:22:18;;;;;;;10.77;6.30;;;;;;;4.58;51.41;102411.13;5012053;27;100939;-84
2023/02/05 08:24:44;;;;;;;11.30;5.90;;;;;;;4.73;51.33;102412.34;5018673;27;101061;-82
2023/02/05 08:27:10;;;;;;;13.77;6.77;;;;;;;5.07;51.40;102438.28;5033054;27;96943;-80
2023/02/05 08:29:36;;;;;;;14.77;6.77;;;;;;;5.28;50.48;102445.69;5046869;27;97410;-83
2023/02/05 08:32:01;;;;;;;13.53;6.07;;;;;;;5.16;50.18;102409.84;5045773;27;101660;-83
2023/02/05 08:34:28;;;;;;;10.43;5.03;;;;;;;5.22;49.79;102415.19;5020655;27;101059;-82
2023/02/05 08:36:53;;;;;;;10.03;5.53;;;;;;;5.42;49.38;102428.63;5032451;27;97148;-78
2023/02/05 08:39:19;;;;;;;10.13;5.07;;;;;;;5.50;49.23;102419.25;5049268;27;97073;-81
2023/02/05 08:41:44;;;;;;;10.67;6.03;;;;;;;5.65;48.88;102435.16;5020571;27;101213;-85
2023/02/05 08:44:10;;;;;;;9.53;5.37;;;;;;;5.63;48.51;102442.06;5045335;27;101263;-83
2023/02/05 08:46:38;;;;;;;8.57;4.60;;;;;;;5.59;48.89;102421.16;5041154;27;97264;-82
2023/02/05 08:49:03;;;;;;;12.20;4.73;;;;;;;5.88;48.05;102432.13;5047746;27;97252;-83
2023/02/05 08:51:29;;;;;;;8.40;4.77;;;;;;;5.96;47.34;102441.00;5029748;27;101535;-83
2023/02/05 08:53:55;;;;;;;8.37;4.57;;;;;;;5.81;47.14;102454.56;5036543;27;101621;-86
2023/02/05 08:56:21;;;;;;;7.70;4.27;;;;;;;5.58;47.64;102454.13;5027243;27;97239;-87
2023/02/05 08:58:47;;;;;;;6.10;4.03;;;;;;;5.51;47.90;102441.81;5034599;27;96976;-83
2023/02/05 09:01:14;;;;;;;8.13;4.70;;;;;;;5.49;48.07;102427.88;5053310;27;101373;-79
2023/02/05 09:03:40;;;;;;;6.67;3.80;;;;;;;5.37;48.07;102440.66;5033362;27;101735;-81
2023/02/05 09:06:08;;;;;;;8.37;4.40;;;;;;;5.36;48.28;102437.19;5020690;27;97388;-79
2023/02/05 09:08:34;;;;;;;7.43;4.00;;;;;;;5.40;48.02;102417.28;5021636;27;96870;-78
2023/02/05 09:11:00;;;;;;;10.10;4.60;;;;;;;5.65;48.10;102436.91;5034021;27;101289;-78
2023/02/05 09:13:25;;;;;;;8.80;3.97;;;;;;;5.91;47.69;102426.97;5053356;27;97772;-81
2023/02/05 09:15:51;;;;;;;6.17;4.07;;;;;;;6.13;47.39;102418.72;5036866;27;97224;-82
2023/02/05 09:18:17;;;;;;;7.80;4.70;;;;;;;6.43;46.51;102421.81;5036874;27;98886;-82
2023/02/05 09:20:44;;;;;;;7.33;4.23;;;;;;;6.60;45.74;102409.91;5031649;27;101351;-83
2023/02/05 09:23:11;;;;;;;7.13;5.07;;;;;;;6.86;45.96;102418.13;5036703;27;101009;-82
2023/02/05 09:25:38;;;;;;;8.97;4.70;;;;;;;7.06;45.16;102415.81;5049908;27;96795;-82
2023/02/05 09:28:06;;;;;;;8.60;5.63;;;;;;;6.84;45.11;102419.00;5045963;27;96919;-80
2023/02/05 09:30:32;;;;;;;9.65;5.10;;;;;;;7.08;44.76;102403.66;5031280;27;101325;-83
2023/02/05 09:32:58;;;;;;;11.90;5.40;;;;;;;7.52;44.31;102418.16;5053865;27;101871;-83
2023/02/05 09:35:23;;;;;;;9.25;5.15;;;;;;;7.22;43.06;102419.53;5044968;27;96794;-77
2023/02/05 09:37:49;;;;;;;8.65;5.35;;;;;;;7.53;44.00;102420.75;5024389;27;97218;-83
2023/02/05 09:40:27;;;;;;;10.43;5.32;;;;;;;7.99;42.87;102418.66;5046810;27;101630;-81
2023/02/05 09:43:14;;;;;;;12.70;5.90;;;;;;;8.45;42.23;102428.72;5037719;27;100892;-80
2023/02/05 09:45:49;;;;;;;10.68;5.07;;;;;;;8.77;41.23;102423.72;5028338;27;96860;-84
2023/02/05 09:48:30;;;;;;;9.45;5.97;;;;;;;9.09;40.74;102423.03;5057079;27;96838;-83
2023/02/05 09:50:56;;;;;;;9.05;5.43;;;;;;;9.39;40.46;102417.94;5064554;27;101221;-83
2023/02/05 09:53:22;;;;;;;7.95;4.97;;;;;;;9.70;39.59;102416.31;5052341;27;97342;-84
2023/02/05 09:55:48;;;;;;;10.63;5.88;;;;;;;9.96;38.66;102416.34;5037239;27;97156;-83
2023/02/05 09:58:18;;;;;;;9.75;6.25;;;;;;;10.15;38.75;102401.53;5049838;27;96902;-83
2023/02/05 10:00:50;;;;;;;11.65;6.72;;;;;;;10.24;38.16;102408.53;5025799;27;100580;-82
2023/02/05 10:03:27;;;;;;;11.27;6.82;;;;;;;10.13;37.58;102403.28;5058562;27;98071;-83
2023/02/05 10:06:20;;;;;;;9.18;5.75;;;;;;;9.62;37.61;102404.91;5025340;27;97089;-83
2023/02/05 10:09:01;;;;;;;5.35;2.72;;;;;;;8.80;36.89;102406.28;5047217;27;97033;-83
2023/02/05 10:12:02;;;;;;;3.35;2.55;;;;;;;8.20;36.25;102390.94;5047184;27;98183;-82
2023/02/05 10:14:36;;;;;;;4.32;2.70;;;;;;;7.42;37.82;102391.91;5030499;27;101851;-82
2023/02/05 10:17:23;;;;;;;3.63;2.65;;;;;;;6.99;38.91;102385.25;5059693;27;97169;-83
2023/02/05 10:20:07;;;;;;;4.53;3.05;;;;;;;6.68;39.78;102390.03;5067192;27;97225;-82
2023/02/05 10:22:48;;;;;;;8.32;3.22;;;;;;;6.37;40.26;102374.75;5048424;27;100803;-81
2023/02/05 10:25:32;;;;;;;6.10;2.85;;;;;;;6.23;40.01;102395.41;5050787;27;101498;-82
2023/02/05 10:28:17;;;;;;;6.78;1.70;;;;;;;5.85;39.75;102382.56;5063403;27;97215;-81
2023/02/05 10:31:01;;;;;;;3.78;2.03;;;;;;;5.71;40.18;102384.03;5062832;27;97449;-81
2023/02/05 10:33:38;;;;;;;8.02;2.20;;;;;;;5.54;41.04;102381.97;5069580;27;100538;-80
2023/02/05 10:36:05;;;;;;;4.05;2.17;;;;;;;5.39;41.19;102376.47;5036139;27;100859;-80
2023/02/05 10:38:40;;;;;;;3.55;2.47;;;;;;;5.31;40.83;102385.84;5049036;27;97494;-83
2023/02/05 10:41:23;;;;;;;4.68;2.10;;;;;;;5.18;40.92;102396.00;5045510;27;97374;-77
2023/02/05 10:43:52;;;;;;;3.63;1.83;;;;;;;4.88;41.06;102375.38;5046932;27;97884;-78
2023/02/05 10:46:18;;;;;;;4.87;1.70;;;;;;;4.75;41.64;102370.78;5033315;27;100704;-77
2023/02/05 10:48:55;;;;;;;1.42;1.13;;;;;;;4.80;41.54;102396.88;5024981;27;97928;-80
2023/02/05 10:51:31;;;;;;;7.05;1.58;;;;;;;4.61;41.36;102387.78;5029552;27;97489;-80
2023/02/05 10:53:59;;;;;;;2.47;1.70;;;;;;;4.35;41.89;102380.22;5046847;27;101596;-79
2023/02/05 10:56:25;;;;;;;5.63;1.73;;;;;;;4.27;41.62;102399.97;5047939;27;101274;-82
2023/02/05 10:58:52;;;;;;;2.90;1.70;;;;;;;4.13;41.90;102390.94;5047064;27;96864;-79
2023/02/05 11:01:29;;;;;;;3.30;1.67;;;;;;;4.04;42.52;102395.06;5049016;27;97239;-77
2023/02/05 11:03:59;;;;;;;3.47;1.87;;;;;;;4.06;42.71;102395.09;5050419;27;101044;-77
2023/02/05 11:06:26;;;;;;;3.67;1.90;;;;;;;3.95;42.77;102365.34;5049459;27;100794;-82
2023/02/05 11:08:52;;;;;;;3.53;1.73;;;;;;;4.11;42.81;102388.31;5054263;27;97148;-77
2023/02/05 11:11:21;;;;;;;3.43;1.60;;;;;;;3.93;42.60;102380.03;5036197;27;96893;-81
2023/02/05 11:13:53;;;;;;;3.93;2.20;;;;;;;3.70;42.66;102356.06;5035856;27;101680;-79
2023/02/05 11:16:19;;;;;;;5.40;2.10;;;;;;;3.69;43.68;102370.75;5032513;27;101604;-80
2023/02/05 11:18:53;;;;;;;6.07;2.50;;;;;;;3.71;43.61;102369.06;5046845;27;98089;-83
2023/02/05 11:21:19;;;;;;;2.50;1.60;;;;;;;3.67;43.33;102372.44;5034124;27;97099;-80
2023/02/05 11:23:56;;;;;;;2.70;1.90;;;;;;;3.74;43.27;102395.13;5045004;27;97668;-82
2023/02/05 11:26:24;;;;;;;2.93;2.20;;;;;;;3.81;43.19;102391.88;5017155;27;101427;-81
2023/02/05 11:28:49;;;;;;;3.50;2.07;;;;;;;3.80;43.45;102391.81;5024208;27;97279;-81
2023/02/05 11:31:18;;;;;;;5.03;2.43;;;;;;;3.84;43.50;102397.16;5010087;27;96776;-80
2023/02/05 11:33:44;;;;;;;7.03;3.10;;;;;;;3.78;43.56;102381.41;5029554;27;101126;-82
2023/02/05 11:36:23;;;;;;;6.90;2.70;;;;;;;3.82;43.35;102390.16;5033642;27;101705;-82
2023/02/05 11:38:56;;;;;;;3.77;2.60;;;;;;;3.91;43.73;102395.59;5010053;27;97361;-82